Impacts METAR Board
IDs:

KPIT - Pittsburgh Intl, PA, US

Updated at: 0300 UTC 22 Jun 2018
Potential Impact None Slight Moderate High
Time 21/15Z 21/16Z 21/17Z 21/18Z 21/19Z 21/20Z 21/21Z 21/22Z 21/23Z 22/00Z 22/01Z 22/02Z 22/03Z
Temp71 70 72 75 75 76 76 76 75 74 74 72 72
Dewpt62 63 64 63 63 64 62 63 63 63 63 64 62
Altim29.87 29.87 29.87 29.86 29.84 29.84 29.82 29.81 29.81 29.82 29.81 29.82 29.84
VIS10 10 10 10 10 10 10 10 10 10 10 10 10
CIG32 28 30 37 43 250 220 220 200 200 180 150 140
CoverOVCOVCOVCOVCBKNBKNOVCOVCOVCOVCOVCOVCOVC
FltCatVFRMVFRMVFRVFRVFRVFRVFRVFRVFRVFRVFRVFRVFR
WX--------------------------
WDir0904060800120908090709090
WSpd3 5 5 5 7 5 5 7 5 4 4 4 5
WGst-- -- -- -- -- -- -- -- -- -- -- -- --
Raw hourly METARs
KPIT 211451Z VRB03KT 10SM SCT017 OVC032 22/17 A2987 RMK AO2 SLP114 SCT V BKN T02170167 51002
KPIT 211551Z 09005KT 10SM SCT016 OVC028 21/17 A2987 RMK AO2 SLP117 T02110172
KPIT 211651Z 04005KT 10SM BKN030 OVC038 22/18 A2987 RMK AO2 SLP112 BINOVC T02220178
KPIT 211751Z 06005KT 10SM FEW022 OVC037 24/17 A2986 RMK AO2 SLP109 BINOVC T02390172 10239 20189 58004
KPIT 211851Z 08007KT 10SM SCT024 BKN043 24/17 A2984 RMK AO2 SLP104 T02390172
KPIT 211951Z VRB05KT 10SM FEW029 SCT045 BKN250 24/18 A2984 RMK AO2 SLP103 T02440178
KPIT 212051Z 12005KT 10SM FEW029 SCT038 OVC220 24/17 A2982 RMK AO2 SLP098 T02440167 56011
KPIT 212151Z 09007KT 10SM FEW048 OVC220 24/17 A2981 RMK AO2 SLP094 T02440172
KPIT 212251Z 08005KT 10SM FEW045 OVC200 24/17 A2981 RMK AO2 SLP094 T02390172
KPIT 212351Z 09004KT 10SM OVC200 23/17 A2982 RMK AO2 SLP096 T02330172 10256 20228 55002
KPIT 220051Z 07004KT 10SM OVC180 23/17 A2981 RMK AO2 SLP094 T02330172
KPIT 220151Z 09004KT 10SM OVC150 22/18 A2982 RMK AO2 SLP097 T02220178
KPIT 220251Z 09005KT 10SM OVC140 22/17 A2984 RMK AO2 SLP102 T02220167 53006



Page loaded:  03:29 UTC  |   08:29 PM Pacific  |   09:29 PM Mountain  |   10:29 PM Central  |   11:29 PM Eastern

 

ADVISORIES

FORECASTS

FORECASTS

OBSERVATIONS

USER TOOLS

ABOUT US